Time,TemperatureF,DewpointF,PressureIn,WindDirection,WindDirectionDegrees,WindSpeedMPH,WindSpeedGustMPH,Humidity,HourlyPrecipIn,Conditions,Clouds,dailyrainin,SoftwareType,DateUTC
2013-02-05 00:00:00,24.3,21.8,29.95,SSE,157,2.0,9.0,90,0.00,,,0.00,Weather View 32 v70,2013-02-05 06:00:00,
2013-02-05 00:05:00,24.4,22.2,29.95,SE,135,2.0,9.0,91,0.00,,,0.00,Weather View 32 v70,2013-02-05 06:05:00,
2013-02-05 00:10:00,24.4,21.9,29.95,ESE,112,1.0,9.0,90,0.00,,,0.00,Weather View 32 v70,2013-02-05 06:10:00,
2013-02-05 00:15:00,24.4,22.2,29.95,SE,135,2.0,9.0,91,0.00,,,0.00,Weather View 32 v70,2013-02-05 06:15:00,
2013-02-05 00:20:00,24.4,22.2,29.95,SE,135,2.0,9.0,91,0.00,,,0.00,Weather View 32 v70,2013-02-05 06:20:00,
2013-02-05 00:25:00,24.5,22.3,29.95,ESE,112,7.0,9.0,91,0.00,,,0.00,Weather View 32 v70,2013-02-05 06:25:00,
2013-02-05 00:30:00,24.6,22.4,29.95,SE,135,5.0,9.0,91,0.00,,,0.00,Weather View 32 v70,2013-02-05 06:30:00,
2013-02-05 00:35:00,24.6,22.4,29.95,ESE,112,4.0,9.0,91,0.00,,,0.00,Weather View 32 v70,2013-02-05 06:35:00,
2013-02-05 00:40:00,24.5,22.3,29.95,SSE,157,4.0,9.0,91,0.00,,,0.00,Weather View 32 v70,2013-02-05 06:40:00,
2013-02-05 00:45:00,24.3,22.1,29.95,SE,135,2.0,9.0,91,0.00,,,0.00,Weather View 32 v70,2013-02-05 06:45:00,
2013-02-05 00:50:00,24.3,22.3,29.95,SE,135,2.0,9.0,92,0.00,,,0.00,Weather View 32 v70,2013-02-05 06:50:00,
2013-02-05 00:55:00,24.3,22.3,29.95,SSE,157,3.0,9.0,92,0.00,,,0.00,Weather View 32 v70,2013-02-05 06:55:00,
2013-02-05 01:00:00,24.3,22.6,29.94,SSE,157,2.0,9.0,93,0.00,,,0.00,Weather View 32 v70,2013-02-05 07:00:00,
2013-02-05 01:05:00,24.4,22.7,29.94,SSE,157,2.0,9.0,93,0.00,,,0.00,Weather View 32 v70,2013-02-05 07:05:00,
2013-02-05 01:10:00,24.4,22.7,29.94,South,180,4.0,9.0,93,0.00,,,0.00,Weather View 32 v70,2013-02-05 07:10:00,
2013-02-05 01:15:00,24.6,22.9,29.94,SE,135,2.0,9.0,93,0.00,,,0.00,Weather View 32 v70,2013-02-05 07:15:00,
2013-02-05 01:20:00,24.6,22.9,29.93,ESE,112,3.0,9.0,93,0.00,,,0.00,Weather View 32 v70,2013-02-05 07:20:00,
2013-02-05 01:25:00,24.6,22.9,29.93,SE,135,7.0,9.0,93,0.00,,,0.00,Weather View 32 v70,2013-02-05 07:25:00,
2013-02-05 01:30:00,24.5,22.8,29.93,ESE,112,7.0,9.0,93,0.00,,,0.00,Weather View 32 v70,2013-02-05 07:30:00,
2013-02-05 01:35:00,24.6,22.9,29.93,SE,135,4.0,9.0,93,0.00,,,0.00,Weather View 32 v70,2013-02-05 07:35:00,
2013-02-05 01:40:00,24.6,22.9,29.93,SE,135,4.0,8.0,93,0.00,,,0.00,Weather View 32 v70,2013-02-05 07:40:00,
2013-02-05 01:45:00,24.6,22.9,29.93,SE,135,4.0,8.0,93,0.00,,,0.00,Weather View 32 v70,2013-02-05 07:45:00,
2013-02-05 01:50:00,24.5,22.8,29.93,ESE,112,5.0,8.0,93,0.00,,,0.00,Weather View 32 v70,2013-02-05 07:50:00,
2013-02-05 01:55:00,24.5,22.8,29.93,SE,135,5.0,8.0,93,0.00,,,0.00,Weather View 32 v70,2013-02-05 07:55:00,
2013-02-05 02:00:00,24.5,22.8,29.93,ESE,112,4.0,8.0,93,0.00,,,0.00,Weather View 32 v70,2013-02-05 08:00:00,
2013-02-05 02:05:00,24.5,22.8,29.93,ESE,112,4.0,8.0,93,0.00,,,0.00,Weather View 32 v70,2013-02-05 08:05:00,
2013-02-05 02:10:00,24.5,22.8,29.93,SE,135,6.0,9.0,93,0.00,,,0.00,Weather View 32 v70,2013-02-05 08:10:00,
2013-02-05 02:15:00,24.5,22.8,29.92,SSE,157,5.0,9.0,93,0.00,,,0.00,Weather View 32 v70,2013-02-05 08:15:00,
2013-02-05 02:20:00,24.4,22.7,29.93,SE,135,4.0,9.0,93,0.00,,,0.00,Weather View 32 v70,2013-02-05 08:20:00,
2013-02-05 02:25:00,24.3,22.6,29.93,SE,135,2.0,9.0,93,0.00,,,0.00,Weather View 32 v70,2013-02-05 08:25:00,
2013-02-05 02:30:00,24.2,22.5,29.92,SE,135,4.0,9.0,93,0.00,,,0.00,Weather View 32 v70,2013-02-05 08:30:00,
2013-02-05 02:35:00,24.1,22.4,29.93,SE,135,6.0,9.0,93,0.00,,,0.00,Weather View 32 v70,2013-02-05 08:35:00,
2013-02-05 02:40:00,24.1,22.4,29.93,ESE,112,4.0,9.0,93,0.00,,,0.00,Weather View 32 v70,2013-02-05 08:40:00,
2013-02-05 02:45:00,24.1,22.4,29.92,ESE,112,5.0,9.0,93,0.00,,,0.00,Weather View 32 v70,2013-02-05 08:45:00,
2013-02-05 02:50:00,24.1,22.4,29.92,SE,135,4.0,9.0,93,0.00,,,0.00,Weather View 32 v70,2013-02-05 08:50:00,
2013-02-05 02:55:00,24.0,22.3,29.92,ESE,112,2.0,9.0,93,0.00,,,0.00,Weather View 32 v70,2013-02-05 08:55:00,
2013-02-05 03:00:00,23.9,22.2,29.92,ESE,112,3.0,9.0,93,0.00,,,0.00,Weather View 32 v70,2013-02-05 09:00:00,
2013-02-05 03:05:00,23.9,22.2,29.91,ESE,112,2.0,9.0,93,0.00,,,0.00,Weather View 32 v70,2013-02-05 09:05:00,
2013-02-05 03:10:00,23.9,22.2,29.91,ESE,112,2.0,8.0,93,0.00,,,0.00,Weather View 32 v70,2013-02-05 09:10:00,
2013-02-05 03:15:00,23.9,22.2,29.91,ESE,112,2.0,7.0,93,0.00,,,0.00,Weather View 32 v70,2013-02-05 09:15:00,
2013-02-05 03:20:00,23.9,22.2,29.91,ESE,112,2.0,7.0,93,0.00,,,0.00,Weather View 32 v70,2013-02-05 09:20:00,
2013-02-05 03:25:00,23.9,22.2,29.91,SE,135,2.0,7.0,93,0.00,,,0.00,Weather View 32 v70,2013-02-05 09:25:00,
2013-02-05 03:30:00,23.9,22.2,29.91,SE,135,2.0,7.0,93,0.00,,,0.00,Weather View 32 v70,2013-02-05 09:30:00,
2013-02-05 03:35:00,23.9,22.2,29.91,SE,135,2.0,7.0,93,0.00,,,0.00,Weather View 32 v70,2013-02-05 09:35:00,
2013-02-05 03:40:00,23.8,22.1,29.92,SE,135,1.0,7.0,93,0.00,,,0.00,Weather View 32 v70,2013-02-05 09:40:00,
2013-02-05 03:45:00,23.9,22.2,29.91,ESE,112,2.0,6.0,93,0.00,,,0.00,Weather View 32 v70,2013-02-05 09:45:00,
2013-02-05 03:50:00,24.1,22.4,29.91,SE,135,2.0,6.0,93,0.00,,,0.00,Weather View 32 v70,2013-02-05 09:50:00,
2013-02-05 03:55:00,24.3,22.6,29.91,ESE,112,2.0,6.0,93,0.00,,,0.00,Weather View 32 v70,2013-02-05 09:55:00,
2013-02-05 04:00:00,24.6,22.9,29.91,ESE,112,2.0,6.0,93,0.00,,,0.00,Weather View 32 v70,2013-02-05 10:00:00,
2013-02-05 04:05:00,24.7,23.0,29.91,ESE,112,2.0,6.0,93,0.00,,,0.00,Weather View 32 v70,2013-02-05 10:05:00,
2013-02-05 04:10:00,24.8,23.1,29.91,ESE,112,1.0,4.0,93,0.00,,,0.00,Weather View 32 v70,2013-02-05 10:10:00,
2013-02-05 04:15:00,24.9,23.2,29.91,ESE,112,1.0,4.0,93,0.00,,,0.00,Weather View 32 v70,2013-02-05 10:15:00,
2013-02-05 04:21:00,24.9,23.2,29.91,ESE,112,3.0,4.0,93,0.00,,,0.00,Weather View 32 v70,2013-02-05 10:21:00,
2013-02-05 04:26:00,25.0,23.5,29.91,East,90,4.0,4.0,94,0.00,,,0.00,Weather View 32 v70,2013-02-05 10:26:00,
2013-02-05 04:31:00,25.3,23.8,29.90,SE,135,3.0,4.0,94,0.00,,,0.00,Weather View 32 v70,2013-02-05 10:31:00,
2013-02-05 04:36:00,25.6,24.1,29.90,East,90,2.0,4.0,94,0.00,,,0.00,Weather View 32 v70,2013-02-05 10:36:00,
2013-02-05 04:41:00,25.7,24.2,29.90,East,90,1.0,4.0,94,0.00,,,0.00,Weather View 32 v70,2013-02-05 10:41:00,
2013-02-05 04:46:00,25.7,24.2,29.91,East,90,0.0,4.0,94,0.00,,,0.00,Weather View 32 v70,2013-02-05 10:46:00,
2013-02-05 04:51:00,25.7,24.2,29.91,East,90,0.0,4.0,94,0.00,,,0.00,Weather View 32 v70,2013-02-05 10:51:00,
2013-02-05 04:56:00,25.8,24.3,29.91,East,90,2.0,4.0,94,0.00,,,0.00,Weather View 32 v70,2013-02-05 10:56:00,
2013-02-05 05:01:00,25.8,24.3,29.91,East,90,0.0,4.0,94,0.00,,,0.00,Weather View 32 v70,2013-02-05 11:01:00,
2013-02-05 05:06:00,25.8,24.3,29.92,East,90,1.0,4.0,94,0.00,,,0.00,Weather View 32 v70,2013-02-05 11:06:00,
2013-02-05 05:11:00,25.9,24.4,29.92,East,90,2.0,4.0,94,0.00,,,0.00,Weather View 32 v70,2013-02-05 11:11:00,
2013-02-05 05:16:00,26.2,24.7,29.92,East,90,0.0,4.0,94,0.00,,,0.00,Weather View 32 v70,2013-02-05 11:16:00,
2013-02-05 05:21:00,26.5,25.0,29.91,East,90,1.0,4.0,94,0.00,,,0.00,Weather View 32 v70,2013-02-05 11:21:00,
2013-02-05 05:26:00,26.8,25.3,29.90,East,90,2.0,4.0,94,0.00,,,0.00,Weather View 32 v70,2013-02-05 11:26:00,
2013-02-05 05:31:00,27.5,25.5,29.90,East,90,2.0,4.0,92,0.00,,,0.00,Weather View 32 v70,2013-02-05 11:31:00,
2013-02-05 05:36:00,27.2,25.2,29.90,East,90,2.0,4.0,92,0.00,,,0.00,Weather View 32 v70,2013-02-05 11:36:00,
2013-02-05 05:41:00,26.8,24.8,29.90,East,90,1.0,4.0,92,0.00,,,0.00,Weather View 32 v70,2013-02-05 11:41:00,
2013-02-05 05:46:00,26.4,24.7,29.90,East,90,1.0,4.0,93,0.00,,,0.00,Weather View 32 v70,2013-02-05 11:46:00,
2013-02-05 05:51:00,26.4,24.9,29.90,East,90,0.0,4.0,94,0.00,,,0.00,Weather View 32 v70,2013-02-05 11:51:00,
2013-02-05 05:56:00,26.2,24.5,29.92,East,90,0.0,4.0,93,0.00,,,0.00,Weather View 32 v70,2013-02-05 11:56:00,
2013-02-05 06:01:00,25.9,24.4,29.92,SE,135,1.0,4.0,94,0.00,,,0.00,Weather View 32 v70,2013-02-05 12:01:00,
2013-02-05 06:06:00,26.2,24.7,29.92,SE,135,0.0,4.0,94,0.00,,,0.00,Weather View 32 v70,2013-02-05 12:06:00,
2013-02-05 06:11:00,26.6,25.1,29.92,SE,135,0.0,4.0,94,0.00,,,0.00,Weather View 32 v70,2013-02-05 12:11:00,
2013-02-05 06:16:00,27.2,25.7,29.92,WSW,247,0.0,4.0,94,0.00,,,0.00,Weather View 32 v70,2013-02-05 12:16:00,
2013-02-05 06:21:00,28.4,26.6,29.92,SW,225,1.0,4.0,93,0.00,,,0.00,Weather View 32 v70,2013-02-05 12:21:00,
2013-02-05 06:26:00,29.9,27.3,29.91,WNW,292,4.0,4.0,90,0.00,,,0.00,Weather View 32 v70,2013-02-05 12:26:00,
2013-02-05 06:31:00,31.5,28.1,29.92,West,270,4.0,5.0,87,0.00,,,0.00,Weather View 32 v70,2013-02-05 12:31:00,
2013-02-05 06:36:00,32.9,28.6,29.92,WNW,292,2.0,6.0,84,0.00,,,0.00,Weather View 32 v70,2013-02-05 12:36:00,
2013-02-05 06:41:00,33.4,28.8,29.92,West,270,4.0,6.0,83,0.00,,,0.00,Weather View 32 v70,2013-02-05 12:41:00,
2013-02-05 06:46:00,33.9,28.7,29.92,West,270,4.0,7.0,81,0.00,,,0.00,Weather View 32 v70,2013-02-05 12:46:00,
2013-02-05 06:51:00,34.8,28.6,29.93,West,270,5.0,10.0,78,0.00,,,0.00,Weather View 32 v70,2013-02-05 12:51:00,
2013-02-05 06:56:00,35.4,28.9,29.93,West,270,9.0,12.0,77,0.00,,,0.00,Weather View 32 v70,2013-02-05 12:56:00,
2013-02-05 07:01:00,35.6,28.8,29.93,West,270,7.0,12.0,76,0.00,,,0.00,Weather View 32 v70,2013-02-05 13:01:00,
2013-02-05 07:06:00,35.8,28.6,29.94,West,270,4.0,12.0,75,0.00,,,0.00,Weather View 32 v70,2013-02-05 13:06:00,
2013-02-05 07:11:00,35.8,29.0,29.94,West,270,9.0,12.0,76,0.00,,,0.00,Weather View 32 v70,2013-02-05 13:11:00,
2013-02-05 07:16:00,36.2,29.0,29.95,WNW,292,7.0,12.0,75,0.00,,,0.00,Weather View 32 v70,2013-02-05 13:16:00,
2013-02-05 07:21:00,36.3,29.1,29.95,West,270,6.0,12.0,75,0.00,,,0.00,Weather View 32 v70,2013-02-05 13:21:00,
2013-02-05 07:26:00,36.7,29.2,29.96,WNW,292,6.0,12.0,74,0.00,,,0.00,Weather View 32 v70,2013-02-05 13:26:00,
2013-02-05 07:31:00,36.9,29.4,29.96,West,270,7.0,12.0,74,0.00,,,0.00,Weather View 32 v70,2013-02-05 13:31:00,
2013-02-05 07:36:00,36.8,29.6,29.96,West,270,9.0,12.0,75,0.00,,,0.00,Weather View 32 v70,2013-02-05 13:36:00,
2013-02-05 07:41:00,36.8,29.6,29.96,WNW,292,7.0,14.0,75,0.00,,,0.00,Weather View 32 v70,2013-02-05 13:41:00,
2013-02-05 07:46:00,36.8,29.9,29.97,West,270,7.0,14.0,76,0.00,,,0.00,Weather View 32 v70,2013-02-05 13:46:00,
2013-02-05 07:51:00,36.9,30.0,29.97,WNW,292,10.0,16.0,76,0.00,,,0.00,Weather View 32 v70,2013-02-05 13:51:00,
2013-02-05 07:56:00,36.9,30.0,29.98,WNW,292,15.0,18.0,76,0.00,,,0.00,Weather View 32 v70,2013-02-05 13:56:00,
2013-02-05 08:01:00,36.9,30.0,29.98,WNW,292,9.0,18.0,76,0.00,,,0.00,Weather View 32 v70,2013-02-05 14:01:00,
2013-02-05 08:06:00,36.8,29.9,29.98,West,270,12.0,18.0,76,0.00,,,0.00,Weather View 32 v70,2013-02-05 14:06:00,
2013-02-05 08:11:00,36.7,29.8,29.98,WNW,292,12.0,22.0,76,0.00,,,0.00,Weather View 32 v70,2013-02-05 14:11:00,
2013-02-05 08:16:00,36.6,30.1,29.99,West,270,7.0,22.0,77,0.00,,,0.00,Weather View 32 v70,2013-02-05 14:16:00,
2013-02-05 08:21:00,36.5,30.0,29.99,West,270,12.0,22.0,77,0.00,,,0.00,Weather View 32 v70,2013-02-05 14:21:00,
2013-02-05 08:26:00,36.5,30.0,30.00,West,270,7.0,22.0,77,0.00,,,0.00,Weather View 32 v70,2013-02-05 14:26:00,
2013-02-05 08:31:00,36.6,30.1,30.00,WNW,292,16.0,22.0,77,0.00,,,0.00,Weather View 32 v70,2013-02-05 14:31:00,
2013-02-05 08:36:00,36.7,30.2,30.00,West,270,7.0,22.0,77,0.00,,,0.00,Weather View 32 v70,2013-02-05 14:36:00,
2013-02-05 08:41:00,36.7,30.2,30.02,NW,315,14.0,22.0,77,0.00,,,0.00,Weather View 32 v70,2013-02-05 14:41:00,
2013-02-05 08:46:00,36.9,30.4,30.02,West,270,11.0,22.0,77,0.00,,,0.00,Weather View 32 v70,2013-02-05 14:46:00,
2013-02-05 08:51:00,36.8,30.3,30.02,WNW,292,13.0,22.0,77,0.00,,,0.00,Weather View 32 v70,2013-02-05 14:51:00,
2013-02-05 08:56:00,36.7,30.2,30.03,West,270,11.0,22.0,77,0.00,,,0.00,Weather View 32 v70,2013-02-05 14:56:00,
2013-02-05 09:01:00,36.6,30.1,30.02,West,270,11.0,22.0,77,0.00,,,0.00,Weather View 32 v70,2013-02-05 15:01:00,
2013-02-05 09:06:00,36.6,30.1,30.03,WNW,292,14.0,22.0,77,0.00,,,0.00,Weather View 32 v70,2013-02-05 15:06:00,
2013-02-05 09:11:00,36.5,30.3,30.03,West,270,14.0,19.0,78,0.00,,,0.00,Weather View 32 v70,2013-02-05 15:11:00,
2013-02-05 09:16:00,36.6,30.4,30.04,West,270,5.0,20.0,78,0.00,,,0.00,Weather View 32 v70,2013-02-05 15:16:00,
2013-02-05 09:21:00,36.6,30.4,30.04,West,270,7.0,21.0,78,0.00,,,0.00,Weather View 32 v70,2013-02-05 15:21:00,
2013-02-05 09:26:00,36.7,30.5,30.04,WNW,292,16.0,21.0,78,0.00,,,0.00,Weather View 32 v70,2013-02-05 15:26:00,
2013-02-05 09:31:00,36.8,30.3,30.04,NW,315,16.0,21.0,77,0.00,,,0.00,Weather View 32 v70,2013-02-05 15:31:00,
2013-02-05 09:36:00,36.9,30.4,30.05,West,270,9.0,22.0,77,0.00,,,0.00,Weather View 32 v70,2013-02-05 15:36:00,
2013-02-05 09:41:00,36.9,30.4,30.05,NW,315,11.0,22.0,77,0.00,,,0.00,Weather View 32 v70,2013-02-05 15:41:00,
2013-02-05 09:46:00,37.1,30.6,30.05,NW,315,10.0,22.0,77,0.00,,,0.00,Weather View 32 v70,2013-02-05 15:46:00,
2013-02-05 09:51:00,37.3,30.4,30.06,West,270,5.0,22.0,76,0.00,,,0.00,Weather View 32 v70,2013-02-05 15:51:00,
2013-02-05 09:56:00,37.4,30.5,30.05,West,270,14.0,22.0,76,0.00,,,0.00,Weather View 32 v70,2013-02-05 15:56:00,
2013-02-05 10:01:00,37.5,30.3,30.06,West,270,6.0,22.0,75,0.00,,,0.00,Weather View 32 v70,2013-02-05 16:01:00,
2013-02-05 10:06:00,37.5,30.3,30.07,West,270,9.0,28.0,75,0.00,,,0.00,Weather View 32 v70,2013-02-05 16:06:00,
2013-02-05 10:11:00,37.6,30.4,30.07,WNW,292,6.0,28.0,75,0.00,,,0.00,Weather View 32 v70,2013-02-05 16:11:00,
2013-02-05 10:16:00,37.7,30.8,30.06,West,270,17.0,28.0,76,0.00,,,0.00,Weather View 32 v70,2013-02-05 16:16:00,
2013-02-05 10:21:00,37.7,30.8,30.07,SW,225,4.0,28.0,76,0.00,,,0.00,Weather View 32 v70,2013-02-05 16:21:00,
2013-02-05 10:26:00,37.9,30.7,30.07,NW,315,9.0,28.0,75,0.00,,,0.00,Weather View 32 v70,2013-02-05 16:26:00,
2013-02-05 10:31:00,38.1,31.2,30.08,NW,315,15.0,28.0,76,0.00,,,0.00,Weather View 32 v70,2013-02-05 16:31:00,
2013-02-05 10:36:00,38.3,31.1,30.08,NW,315,11.0,28.0,75,0.00,,,0.00,Weather View 32 v70,2013-02-05 16:36:00,
2013-02-05 10:41:00,38.7,31.5,30.09,West,270,12.0,28.0,75,0.00,,,0.00,Weather View 32 v70,2013-02-05 16:41:00,
2013-02-05 10:46:00,38.9,31.3,30.09,WNW,292,11.0,28.0,74,0.00,,,0.00,Weather View 32 v70,2013-02-05 16:46:00,
2013-02-05 10:51:00,39.1,31.5,30.09,WNW,292,10.0,28.0,74,0.00,,,0.00,Weather View 32 v70,2013-02-05 16:51:00,
2013-02-05 10:56:00,39.2,31.3,30.09,West,270,9.0,28.0,73,0.00,,,0.00,Weather View 32 v70,2013-02-05 16:56:00,
2013-02-05 11:01:00,39.3,31.4,30.09,WNW,292,8.0,28.0,73,0.00,,,0.00,Weather View 32 v70,2013-02-05 17:01:00,
2013-02-05 11:06:00,39.3,31.4,30.09,NW,315,12.0,24.0,73,0.00,,,0.00,Weather View 32 v70,2013-02-05 17:06:00,
2013-02-05 11:11:00,39.3,30.7,30.09,NW,315,19.0,23.0,71,0.00,,,0.00,Weather View 32 v70,2013-02-05 17:11:00,
2013-02-05 11:16:00,39.4,30.4,30.09,WNW,292,14.0,24.0,70,0.00,,,0.00,Weather View 32 v70,2013-02-05 17:16:00,
2013-02-05 11:21:00,39.2,30.9,30.10,NW,315,16.0,25.0,72,0.00,,,0.00,Weather View 32 v70,2013-02-05 17:21:00,
2013-02-05 11:26:00,39.4,31.1,30.10,NW,315,17.0,25.0,72,0.00,,,0.00,Weather View 32 v70,2013-02-05 17:26:00,
2013-02-05 11:31:00,39.6,30.6,30.11,West,270,13.0,25.0,70,0.00,,,0.00,Weather View 32 v70,2013-02-05 17:31:00,
2013-02-05 11:36:00,39.7,30.7,30.10,NW,315,18.0,25.0,70,0.00,,,0.00,Weather View 32 v70,2013-02-05 17:36:00,
2013-02-05 11:41:00,39.9,30.5,30.11,NW,315,9.0,25.0,69,0.00,,,0.00,Weather View 32 v70,2013-02-05 17:41:00,
2013-02-05 11:46:00,39.8,30.8,30.11,NW,315,27.0,27.0,70,0.00,,,0.00,Weather View 32 v70,2013-02-05 17:46:00,
2013-02-05 11:51:00,39.5,30.2,30.11,WNW,292,14.0,27.0,69,0.00,,,0.00,Weather View 32 v70,2013-02-05 17:51:00,
2013-02-05 11:56:00,39.6,30.6,30.11,NW,315,13.0,27.0,70,0.00,,,0.00,Weather View 32 v70,2013-02-05 17:56:00,
2013-02-05 12:01:00,39.7,30.7,30.12,WNW,292,16.0,28.0,70,0.00,,,0.00,Weather View 32 v70,2013-02-05 18:01:00,
2013-02-05 12:06:00,39.9,30.9,30.12,NW,315,17.0,28.0,70,0.00,,,0.00,Weather View 32 v70,2013-02-05 18:06:00,
2013-02-05 12:11:00,40.1,30.0,30.12,NW,315,11.0,28.0,67,0.00,,,0.00,Weather View 32 v70,2013-02-05 18:11:00,
2013-02-05 12:17:00,39.9,30.5,30.10,NW,315,19.0,28.0,69,0.00,,,0.00,Weather View 32 v70,2013-02-05 18:17:00,
2013-02-05 12:22:00,39.9,30.5,30.11,NW,315,21.0,28.0,69,0.00,,,0.00,Weather View 32 v70,2013-02-05 18:22:00,
2013-02-05 12:27:00,40.3,30.6,30.11,WNW,292,10.0,28.0,68,0.00,,,0.00,Weather View 32 v70,2013-02-05 18:27:00,
2013-02-05 12:32:00,40.8,30.7,30.12,WNW,292,13.0,28.0,67,0.00,,,0.00,Weather View 32 v70,2013-02-05 18:32:00,
2013-02-05 12:37:00,40.8,30.3,30.12,NW,315,12.0,28.0,66,0.00,,,0.00,Weather View 32 v70,2013-02-05 18:37:00,
2013-02-05 12:42:00,40.6,30.5,30.12,West,270,10.0,28.0,67,0.00,,,0.00,Weather View 32 v70,2013-02-05 18:42:00,
2013-02-05 12:47:00,40.9,30.4,30.12,West,270,4.0,28.0,66,0.00,,,0.00,Weather View 32 v70,2013-02-05 18:47:00,
2013-02-05 12:52:00,41.1,31.0,30.13,South,180,4.0,28.0,67,0.00,,,0.00,Weather View 32 v70,2013-02-05 18:52:00,
2013-02-05 12:57:00,41.3,30.8,30.14,WNW,292,4.0,28.0,66,0.00,,,0.00,Weather View 32 v70,2013-02-05 18:57:00,
2013-02-05 13:02:00,41.6,30.7,30.13,WNW,292,15.0,24.0,65,0.00,,,0.00,Weather View 32 v70,2013-02-05 19:02:00,
2013-02-05 13:07:00,40.9,30.0,30.13,WNW,292,12.0,24.0,65,0.00,,,0.00,Weather View 32 v70,2013-02-05 19:07:00,
2013-02-05 13:12:00,41.1,29.8,30.13,WNW,292,8.0,24.0,64,0.00,,,0.00,Weather View 32 v70,2013-02-05 19:12:00,
2013-02-05 13:17:00,41.3,30.4,30.13,NW,315,12.0,24.0,65,0.00,,,0.00,Weather View 32 v70,2013-02-05 19:17:00,
2013-02-05 13:22:00,41.4,30.9,30.13,WNW,292,10.0,24.0,66,0.00,,,0.00,Weather View 32 v70,2013-02-05 19:22:00,
2013-02-05 13:27:00,41.2,30.3,30.13,WNW,292,6.0,22.0,65,0.00,,,0.00,Weather View 32 v70,2013-02-05 19:27:00,
2013-02-05 13:32:00,41.3,30.8,30.13,NW,315,15.0,22.0,66,0.00,,,0.00,Weather View 32 v70,2013-02-05 19:32:00,
2013-02-05 13:37:00,41.4,30.9,30.13,SW,225,3.0,22.0,66,0.00,,,0.00,Weather View 32 v70,2013-02-05 19:37:00,
2013-02-05 13:42:00,42.3,31.0,30.13,West,270,12.0,22.0,64,0.00,,,0.00,Weather View 32 v70,2013-02-05 19:42:00,
2013-02-05 13:47:00,42.1,30.8,30.13,West,270,11.0,22.0,64,0.00,,,0.00,Weather View 32 v70,2013-02-05 19:47:00,
2013-02-05 13:52:00,41.9,30.6,30.13,WNW,292,7.0,22.0,64,0.00,,,0.00,Weather View 32 v70,2013-02-05 19:52:00,
2013-02-05 13:57:00,42.6,30.9,30.13,West,270,13.0,22.0,63,0.00,,,0.00,Weather View 32 v70,2013-02-05 19:57:00,
2013-02-05 14:02:00,42.5,30.8,30.14,West,270,13.0,22.0,63,0.00,,,0.00,Weather View 32 v70,2013-02-05 20:02:00,
2013-02-05 14:07:00,42.9,30.8,30.13,NW,315,16.0,20.0,62,0.00,,,0.00,Weather View 32 v70,2013-02-05 20:07:00,
2013-02-05 14:12:00,42.9,30.8,30.13,West,270,6.0,20.0,62,0.00,,,0.00,Weather View 32 v70,2013-02-05 20:12:00,
2013-02-05 14:17:00,43.2,31.0,30.13,West,270,11.0,20.0,62,0.00,,,0.00,Weather View 32 v70,2013-02-05 20:17:00,
2013-02-05 14:22:00,43.0,31.2,30.13,NW,315,15.0,20.0,63,0.00,,,0.00,Weather View 32 v70,2013-02-05 20:22:00,
2013-02-05 14:27:00,43.3,31.1,30.13,WNW,292,10.0,19.0,62,0.00,,,0.00,Weather View 32 v70,2013-02-05 20:27:00,
2013-02-05 14:32:00,43.5,30.9,30.13,NW,315,7.0,19.0,61,0.00,,,0.00,Weather View 32 v70,2013-02-05 20:32:00,
2013-02-05 14:37:00,43.6,30.6,30.13,WNW,292,5.0,19.0,60,0.00,,,0.00,Weather View 32 v70,2013-02-05 20:37:00,
2013-02-05 14:42:00,43.8,30.8,30.13,NW,315,12.0,19.0,60,0.00,,,0.00,Weather View 32 v70,2013-02-05 20:42:00,
2013-02-05 14:47:00,43.9,30.1,30.12,WNW,292,14.0,19.0,58,0.00,,,0.00,Weather View 32 v70,2013-02-05 20:47:00,
2013-02-05 14:52:00,43.7,29.9,30.13,West,270,11.0,19.0,58,0.00,,,0.00,Weather View 32 v70,2013-02-05 20:52:00,
2013-02-05 14:57:00,43.9,30.1,30.13,WNW,292,14.0,19.0,58,0.00,,,0.00,Weather View 32 v70,2013-02-05 20:57:00,
2013-02-05 15:02:00,43.9,29.6,30.13,NW,315,16.0,21.0,57,0.00,,,0.00,Weather View 32 v70,2013-02-05 21:02:00,
2013-02-05 15:07:00,44.1,29.4,30.13,West,270,10.0,22.0,56,0.00,,,0.00,Weather View 32 v70,2013-02-05 21:07:00,
2013-02-05 15:12:00,43.6,28.9,30.13,NW,315,8.0,22.0,56,0.00,,,0.00,Weather View 32 v70,2013-02-05 21:12:00,
2013-02-05 15:17:00,44.1,29.4,30.14,West,270,7.0,22.0,56,0.00,,,0.00,Weather View 32 v70,2013-02-05 21:17:00,
2013-02-05 15:22:00,44.6,29.9,30.14,West,270,8.0,22.0,56,0.00,,,0.00,Weather View 32 v70,2013-02-05 21:22:00,
2013-02-05 15:27:00,44.2,29.9,30.14,NW,315,17.0,22.0,57,0.00,,,0.00,Weather View 32 v70,2013-02-05 21:27:00,
2013-02-05 15:32:00,43.8,29.1,30.14,NW,315,14.0,22.0,56,0.00,,,0.00,Weather View 32 v70,2013-02-05 21:32:00,
2013-02-05 15:37:00,43.7,29.4,30.13,NW,315,18.0,22.0,57,0.00,,,0.00,Weather View 32 v70,2013-02-05 21:37:00,
2013-02-05 15:42:00,43.5,29.7,30.13,NW,315,17.0,22.0,58,0.00,,,0.00,Weather View 32 v70,2013-02-05 21:42:00,
2013-02-05 15:47:00,43.1,30.5,30.13,NW,315,11.0,22.0,61,0.00,,,0.00,Weather View 32 v70,2013-02-05 21:47:00,
2013-02-05 15:52:00,43.2,30.6,30.14,NW,315,9.0,22.0,61,0.00,,,0.00,Weather View 32 v70,2013-02-05 21:52:00,
2013-02-05 15:57:00,42.7,30.2,30.14,NW,315,11.0,22.0,61,0.00,,,0.00,Weather View 32 v70,2013-02-05 21:57:00,
2013-02-05 16:02:00,42.4,29.9,30.14,NW,315,6.0,22.0,61,0.00,,,0.00,Weather View 32 v70,2013-02-05 22:02:00,
2013-02-05 16:07:00,41.9,30.2,30.14,NW,315,13.0,22.0,63,0.00,,,0.00,Weather View 32 v70,2013-02-05 22:07:00,
2013-02-05 16:12:00,42.3,30.6,30.14,WNW,292,14.0,22.0,63,0.00,,,0.00,Weather View 32 v70,2013-02-05 22:12:00,
2013-02-05 16:17:00,42.2,30.9,30.14,NW,315,13.0,22.0,64,0.00,,,0.00,Weather View 32 v70,2013-02-05 22:17:00,
2013-02-05 16:22:00,42.2,30.5,30.14,NW,315,11.0,22.0,63,0.00,,,0.00,Weather View 32 v70,2013-02-05 22:22:00,
2013-02-05 16:27:00,41.9,30.6,30.14,NNW,337,7.0,22.0,64,0.00,,,0.00,Weather View 32 v70,2013-02-05 22:27:00,
2013-02-05 16:32:00,42.5,30.8,30.14,NW,315,8.0,21.0,63,0.00,,,0.00,Weather View 32 v70,2013-02-05 22:32:00,
2013-02-05 16:37:00,42.4,30.7,30.14,NW,315,7.0,20.0,63,0.00,,,0.00,Weather View 32 v70,2013-02-05 22:37:00,
2013-02-05 16:42:00,41.8,31.3,30.15,NW,315,10.0,20.0,66,0.00,,,0.00,Weather View 32 v70,2013-02-05 22:42:00,
2013-02-05 16:47:00,41.3,30.8,30.15,West,270,5.0,19.0,66,0.00,,,0.00,Weather View 32 v70,2013-02-05 22:47:00,
2013-02-05 16:52:00,41.3,30.8,30.14,NW,315,9.0,19.0,66,0.00,,,0.00,Weather View 32 v70,2013-02-05 22:52:00,
2013-02-05 16:58:00,40.9,30.8,30.15,NNW,337,4.0,19.0,67,0.00,,,0.00,Weather View 32 v70,2013-02-05 22:58:00,
2013-02-05 17:03:00,40.8,31.0,30.15,NNW,337,7.0,19.0,68,0.00,,,0.00,Weather View 32 v70,2013-02-05 23:03:00,
2013-02-05 17:08:00,40.8,31.0,30.15,NW,315,3.0,19.0,68,0.00,,,0.00,Weather View 32 v70,2013-02-05 23:08:00,
2013-02-05 17:13:00,40.7,31.0,30.15,North,360,1.0,19.0,68,0.00,,,0.00,Weather View 32 v70,2013-02-05 23:13:00,
2013-02-05 17:18:00,40.6,30.9,30.16,North,360,2.0,17.0,68,0.00,,,0.00,Weather View 32 v70,2013-02-05 23:18:00,
2013-02-05 17:23:00,40.4,31.0,30.16,NE,45,4.0,17.0,69,0.00,,,0.00,Weather View 32 v70,2013-02-05 23:23:00,
2013-02-05 17:28:00,39.8,30.8,30.16,NNE,22,1.0,15.0,70,0.00,,,0.00,Weather View 32 v70,2013-02-05 23:28:00,
2013-02-05 17:33:00,39.2,30.9,30.16,North,360,2.0,15.0,72,0.00,,,0.00,Weather View 32 v70,2013-02-05 23:33:00,
2013-02-05 17:38:00,38.6,30.7,30.16,North,360,2.0,15.0,73,0.00,,,0.00,Weather View 32 v70,2013-02-05 23:38:00,
2013-02-05 17:43:00,37.8,29.9,30.16,North,360,2.0,15.0,73,0.00,,,0.00,Weather View 32 v70,2013-02-05 23:43:00,
2013-02-05 17:48:00,37.1,29.9,30.16,NNE,22,1.0,15.0,75,0.00,,,0.00,Weather View 32 v70,2013-02-05 23:48:00,
2013-02-05 17:53:00,36.5,29.6,30.16,North,360,2.0,15.0,76,0.00,,,0.00,Weather View 32 v70,2013-02-05 23:53:00,
2013-02-05 17:58:00,35.9,29.4,30.16,NNE,22,1.0,9.0,77,0.00,,,0.00,Weather View 32 v70,2013-02-05 23:58:00,
2013-02-05 18:03:00,35.5,29.6,30.16,NNE,22,2.0,8.0,79,0.00,,,0.00,Weather View 32 v70,2013-02-06 00:03:00,
2013-02-05 18:08:00,35.1,29.2,30.17,NNE,22,1.0,8.0,79,0.00,,,0.00,Weather View 32 v70,2013-02-06 00:08:00,
2013-02-05 18:13:00,34.7,29.2,30.17,North,360,1.0,8.0,80,0.00,,,0.00,Weather View 32 v70,2013-02-06 00:13:00,
2013-02-05 18:18:00,34.3,29.1,30.17,NNE,22,2.0,8.0,81,0.00,,,0.00,Weather View 32 v70,2013-02-06 00:18:00,
2013-02-05 18:23:00,33.9,29.0,30.17,NNE,22,2.0,8.0,82,0.00,,,0.00,Weather View 32 v70,2013-02-06 00:23:00,
2013-02-05 18:28:00,33.6,28.7,30.17,NNE,22,2.0,8.0,82,0.00,,,0.00,Weather View 32 v70,2013-02-06 00:28:00,
2013-02-05 18:33:00,33.3,28.7,30.17,NNE,22,2.0,5.0,83,0.00,,,0.00,Weather View 32 v70,2013-02-06 00:33:00,
2013-02-05 18:38:00,32.9,28.3,30.17,NNE,22,2.0,5.0,83,0.00,,,0.00,Weather View 32 v70,2013-02-06 00:38:00,
2013-02-05 18:43:00,32.6,28.3,30.17,NNE,22,2.0,5.0,84,0.00,,,0.00,Weather View 32 v70,2013-02-06 00:43:00,
2013-02-05 18:48:00,32.2,28.2,30.17,NNE,22,1.0,5.0,85,0.00,,,0.00,Weather View 32 v70,2013-02-06 00:48:00,
2013-02-05 18:53:00,31.9,27.9,30.18,NNE,22,1.0,5.0,85,0.00,,,0.00,Weather View 32 v70,2013-02-06 00:53:00,
2013-02-05 18:58:00,31.4,27.7,30.18,NNE,22,0.0,5.0,86,0.00,,,0.00,Weather View 32 v70,2013-02-06 00:58:00,
2013-02-05 19:03:00,30.9,27.5,30.18,NNE,22,0.0,5.0,87,0.00,,,0.00,Weather View 32 v70,2013-02-06 01:03:00,
2013-02-05 19:08:00,30.4,27.5,30.18,NNE,22,0.0,5.0,89,0.00,,,0.00,Weather View 32 v70,2013-02-06 01:08:00,
2013-02-05 19:13:00,29.9,27.6,30.18,NNE,22,0.0,5.0,91,0.00,,,0.00,Weather View 32 v70,2013-02-06 01:13:00,
2013-02-05 19:18:00,29.4,27.4,30.17,NNE,22,0.0,4.0,92,0.00,,,0.00,Weather View 32 v70,2013-02-06 01:18:00,
2013-02-05 19:23:00,29.0,27.0,30.18,NNE,22,0.0,4.0,92,0.00,,,0.00,Weather View 32 v70,2013-02-06 01:23:00,
2013-02-05 19:28:00,28.8,27.3,30.18,NNE,22,0.0,3.0,94,0.00,,,0.00,Weather View 32 v70,2013-02-06 01:28:00,
2013-02-05 19:33:00,28.8,27.3,30.18,NNE,22,0.0,3.0,94,0.00,,,0.00,Weather View 32 v70,2013-02-06 01:33:00,
2013-02-05 19:38:00,28.8,27.3,30.18,NNE,22,0.0,2.0,94,0.00,,,0.00,Weather View 32 v70,2013-02-06 01:38:00,
2013-02-05 19:43:00,28.5,26.7,30.18,NNE,22,1.0,2.0,93,0.00,,,0.00,Weather View 32 v70,2013-02-06 01:43:00,
2013-02-05 19:48:00,28.2,26.7,30.18,NNE,22,0.0,2.0,94,0.00,,,0.00,Weather View 32 v70,2013-02-06 01:48:00,
2013-02-05 19:53:00,27.8,26.3,30.18,NNE,22,0.0,2.0,94,0.00,,,0.00,Weather View 32 v70,2013-02-06 01:53:00,
2013-02-05 19:59:00,27.7,26.2,30.19,NNE,22,0.0,2.0,94,0.00,,,0.00,Weather View 32 v70,2013-02-06 01:59:00,
2013-02-05 20:04:00,27.8,26.3,30.19,NNE,22,0.0,2.0,94,0.00,,,0.00,Weather View 32 v70,2013-02-06 02:04:00,
2013-02-05 20:09:00,27.8,26.3,30.19,NNE,22,0.0,2.0,94,0.00,,,0.00,Weather View 32 v70,2013-02-06 02:09:00,
2013-02-05 20:14:00,27.7,26.2,30.19,NNE,22,0.0,2.0,94,0.00,,,0.00,Weather View 32 v70,2013-02-06 02:14:00,
2013-02-05 20:19:00,27.6,26.1,30.19,NNE,22,0.0,2.0,94,0.00,,,0.00,Weather View 32 v70,2013-02-06 02:19:00,
2013-02-05 20:24:00,27.6,26.1,30.19,NNE,22,0.0,2.0,94,0.00,,,0.00,Weather View 32 v70,2013-02-06 02:24:00,
2013-02-05 20:29:00,27.5,26.0,30.19,NNE,22,0.0,2.0,94,0.00,,,0.00,Weather View 32 v70,2013-02-06 02:29:00,
2013-02-05 20:34:00,27.2,25.7,30.18,NNE,22,0.0,2.0,94,0.00,,,0.00,Weather View 32 v70,2013-02-06 02:34:00,
2013-02-05 20:39:00,27.0,25.5,30.19,NNE,22,0.0,2.0,94,0.00,,,0.00,Weather View 32 v70,2013-02-06 02:39:00,
2013-02-05 20:44:00,26.8,25.3,30.19,NNE,22,0.0,2.0,94,0.00,,,0.00,Weather View 32 v70,2013-02-06 02:44:00,
2013-02-05 20:49:00,26.8,25.3,30.19,NNE,22,0.0,0.0,94,0.00,,,0.00,Weather View 32 v70,2013-02-06 02:49:00,
2013-02-05 20:54:00,26.7,25.2,30.19,NNE,22,0.0,0.0,94,0.00,,,0.00,Weather View 32 v70,2013-02-06 02:54:00,
2013-02-05 20:59:00,26.8,25.3,30.19,NNE,22,0.0,0.0,94,0.00,,,0.00,Weather View 32 v70,2013-02-06 02:59:00,
2013-02-05 21:04:00,26.6,25.1,30.19,NNE,22,1.0,1.0,94,0.00,,,0.00,Weather View 32 v70,2013-02-06 03:04:00,
2013-02-05 21:09:00,26.6,25.1,30.19,NNE,22,2.0,2.0,94,0.00,,,0.00,Weather View 32 v70,2013-02-06 03:09:00,
2013-02-05 21:14:00,26.6,25.1,30.19,NNE,22,0.0,2.0,94,0.00,,,0.00,Weather View 32 v70,2013-02-06 03:14:00,
2013-02-05 21:19:00,26.4,24.9,30.19,NNE,22,0.0,2.0,94,0.00,,,0.00,Weather View 32 v70,2013-02-06 03:19:00,
2013-02-05 21:24:00,26.1,24.6,30.19,NNE,22,0.0,2.0,94,0.00,,,0.00,Weather View 32 v70,2013-02-06 03:24:00,
2013-02-05 21:29:00,25.9,24.4,30.20,NNE,22,0.0,2.0,94,0.00,,,0.00,Weather View 32 v70,2013-02-06 03:29:00,
2013-02-05 21:34:00,25.9,24.4,30.20,NNE,22,0.0,2.0,94,0.00,,,0.00,Weather View 32 v70,2013-02-06 03:34:00,
2013-02-05 21:39:00,26.3,24.8,30.20,NNE,22,2.0,2.0,94,0.00,,,0.00,Weather View 32 v70,2013-02-06 03:39:00,
2013-02-05 21:44:00,25.9,24.4,30.19,NNE,22,2.0,2.0,94,0.00,,,0.00,Weather View 32 v70,2013-02-06 03:44:00,
2013-02-05 21:49:00,25.9,24.4,30.19,NNE,22,0.0,2.0,94,0.00,,,0.00,Weather View 32 v70,2013-02-06 03:49:00,
2013-02-05 21:54:00,25.6,24.1,30.20,NNE,22,0.0,2.0,94,0.00,,,0.00,Weather View 32 v70,2013-02-06 03:54:00,
2013-02-05 21:59:00,25.4,23.9,30.20,NNE,22,0.0,2.0,94,0.00,,,0.00,Weather View 32 v70,2013-02-06 03:59:00,
2013-02-05 22:04:00,25.6,24.1,30.20,NNE,22,0.0,2.0,94,0.00,,,0.00,Weather View 32 v70,2013-02-06 04:04:00,
2013-02-05 22:09:00,25.5,24.0,30.20,NNE,22,0.0,2.0,94,0.00,,,0.00,Weather View 32 v70,2013-02-06 04:09:00,
2013-02-05 22:14:00,25.4,23.9,30.20,NNE,22,0.0,2.0,94,0.00,,,0.00,Weather View 32 v70,2013-02-06 04:14:00,
2013-02-05 22:19:00,25.1,23.6,30.20,NNE,22,0.0,2.0,94,0.00,,,0.00,Weather View 32 v70,2013-02-06 04:19:00,
2013-02-05 22:24:00,25.1,23.6,30.20,NNE,22,0.0,2.0,94,0.00,,,0.00,Weather View 32 v70,2013-02-06 04:24:00,
2013-02-05 22:29:00,25.3,23.8,30.20,NNE,22,0.0,2.0,94,0.00,,,0.00,Weather View 32 v70,2013-02-06 04:29:00,
2013-02-05 22:34:00,25.5,24.0,30.19,NNE,22,1.0,2.0,94,0.00,,,0.00,Weather View 32 v70,2013-02-06 04:34:00,
2013-02-05 22:39:00,25.9,24.4,30.19,East,90,2.0,2.0,94,0.00,,,0.00,Weather View 32 v70,2013-02-06 04:39:00,
2013-02-05 22:44:00,25.9,24.4,30.20,East,90,0.0,2.0,94,0.00,,,0.00,Weather View 32 v70,2013-02-06 04:44:00,
2013-02-05 22:49:00,25.8,24.3,30.20,ESE,112,2.0,2.0,94,0.00,,,0.00,Weather View 32 v70,2013-02-06 04:49:00,
2013-02-05 22:54:00,26.1,24.6,30.20,ESE,112,2.0,2.0,94,0.00,,,0.00,Weather View 32 v70,2013-02-06 04:54:00,
2013-02-05 23:00:00,26.4,24.9,30.19,ESE,112,2.0,2.0,94,0.00,,,0.00,Weather View 32 v70,2013-02-06 05:00:00,
2013-02-05 23:05:00,26.7,25.2,30.18,SE,135,2.0,5.0,94,0.00,,,0.00,Weather View 32 v70,2013-02-06 05:05:00,
2013-02-05 23:10:00,27.1,25.6,30.18,ESE,112,2.0,5.0,94,0.00,,,0.00,Weather View 32 v70,2013-02-06 05:10:00,
2013-02-05 23:15:00,27.3,25.8,30.18,SE,135,2.0,5.0,94,0.00,,,0.00,Weather View 32 v70,2013-02-06 05:15:00,
2013-02-05 23:20:00,27.2,25.7,30.17,SE,135,2.0,5.0,94,0.00,,,0.00,Weather View 32 v70,2013-02-06 05:20:00,
2013-02-05 23:25:00,27.2,25.7,30.17,SE,135,1.0,5.0,94,0.00,,,0.00,Weather View 32 v70,2013-02-06 05:25:00,
2013-02-05 23:30:00,27.2,25.7,30.17,SE,135,2.0,5.0,94,0.00,,,0.00,Weather View 32 v70,2013-02-06 05:30:00,
2013-02-05 23:35:00,27.1,25.6,30.18,SE,135,1.0,5.0,94,0.00,,,0.00,Weather View 32 v70,2013-02-06 05:35:00,
2013-02-05 23:40:00,27.1,25.6,30.18,SE,135,1.0,5.0,94,0.00,,,0.00,Weather View 32 v70,2013-02-06 05:40:00,
2013-02-05 23:45:00,27.1,25.6,30.18,SE,135,1.0,5.0,94,0.00,,,0.00,Weather View 32 v70,2013-02-06 05:45:00,
2013-02-05 23:50:00,27.0,25.5,30.18,SE,135,2.0,5.0,94,0.00,,,0.00,Weather View 32 v70,2013-02-06 05:50:00,
2013-02-05 23:55:00,27.3,25.8,30.17,East,90,2.0,5.0,94,0.00,,,0.00,Weather View 32 v70,2013-02-06 05:55:00,